sensor_id;sensor_type;location;lat;lon;timestamp;temperature;humidity
4964;DHT22;2497;47.410;9.740;2023-03-12T00:01:45;2.10;99.90
4964;DHT22;2497;47.410;9.740;2023-03-12T00:04:13;2.00;99.90
4964;DHT22;2497;47.410;9.740;2023-03-12T00:06:41;2.00;99.90
4964;DHT22;2497;47.410;9.740;2023-03-12T00:09:08;2.00;99.90
4964;DHT22;2497;47.410;9.740;2023-03-12T00:11:35;2.10;99.90
4964;DHT22;2497;47.410;9.740;2023-03-12T00:14:02;2.00;99.90
4964;DHT22;2497;47.410;9.740;2023-03-12T00:16:29;2.00;99.90
4964;DHT22;2497;47.410;9.740;2023-03-12T00:18:56;2.00;99.90
4964;DHT22;2497;47.410;9.740;2023-03-12T00:21:25;1.90;99.90
4964;DHT22;2497;47.410;9.740;2023-03-12T00:23:52;2.00;99.90
4964;DHT22;2497;47.410;9.740;2023-03-12T00:26:20;2.00;99.90
4964;DHT22;2497;47.410;9.740;2023-03-12T00:28:48;1.90;99.90
4964;DHT22;2497;47.410;9.740;2023-03-12T00:31:17;1.90;99.90
4964;DHT22;2497;47.410;9.740;2023-03-12T00:33:45;1.90;99.90
4964;DHT22;2497;47.410;9.740;2023-03-12T00:36:14;1.90;99.90
4964;DHT22;2497;47.410;9.740;2023-03-12T00:38:43;1.90;99.90
4964;DHT22;2497;47.410;9.740;2023-03-12T00:41:10;2.00;99.90
4964;DHT22;2497;47.410;9.740;2023-03-12T00:43:37;2.00;99.90
4964;DHT22;2497;47.410;9.740;2023-03-12T00:46:04;1.90;99.90
4964;DHT22;2497;47.410;9.740;2023-03-12T00:48:32;1.90;99.90
4964;DHT22;2497;47.410;9.740;2023-03-12T00:50:59;1.90;99.90
4964;DHT22;2497;47.410;9.740;2023-03-12T00:53:26;2.00;99.90
4964;DHT22;2497;47.410;9.740;2023-03-12T00:55:55;2.00;99.90
4964;DHT22;2497;47.410;9.740;2023-03-12T00:58:22;1.90;99.90
4964;DHT22;2497;47.410;9.740;2023-03-12T01:00:49;1.90;99.90
4964;DHT22;2497;47.410;9.740;2023-03-12T01:03:16;1.90;99.90
4964;DHT22;2497;47.410;9.740;2023-03-12T01:05:43;1.90;99.90
4964;DHT22;2497;47.410;9.740;2023-03-12T01:08:11;1.90;99.90
4964;DHT22;2497;47.410;9.740;2023-03-12T01:10:41;1.90;99.90
4964;DHT22;2497;47.410;9.740;2023-03-12T01:13:10;1.90;99.90
4964;DHT22;2497;47.410;9.740;2023-03-12T01:15:37;1.90;99.90
4964;DHT22;2497;47.410;9.740;2023-03-12T01:18:05;1.90;99.90
4964;DHT22;2497;47.410;9.740;2023-03-12T01:20:32;1.90;99.90
4964;DHT22;2497;47.410;9.740;2023-03-12T01:22:59;1.90;99.90
4964;DHT22;2497;47.410;9.740;2023-03-12T01:25:26;1.90;99.90
4964;DHT22;2497;47.410;9.740;2023-03-12T01:27:53;1.90;99.90
4964;DHT22;2497;47.410;9.740;2023-03-12T01:30:22;1.90;99.90
4964;DHT22;2497;47.410;9.740;2023-03-12T01:32:50;1.90;99.90
4964;DHT22;2497;47.410;9.740;2023-03-12T01:35:18;1.90;99.90
4964;DHT22;2497;47.410;9.740;2023-03-12T01:37:45;1.90;99.90
4964;DHT22;2497;47.410;9.740;2023-03-12T01:40:14;1.90;99.90
4964;DHT22;2497;47.410;9.740;2023-03-12T01:42:41;1.90;99.90
4964;DHT22;2497;47.410;9.740;2023-03-12T01:48:10;1.80;99.90
4964;DHT22;2497;47.410;9.740;2023-03-12T01:50:37;1.80;99.90
4964;DHT22;2497;47.410;9.740;2023-03-12T01:53:05;1.80;99.90
4964;DHT22;2497;47.410;9.740;2023-03-12T01:55:32;1.80;99.90
4964;DHT22;2497;47.410;9.740;2023-03-12T01:58:00;1.80;99.90
4964;DHT22;2497;47.410;9.740;2023-03-12T02:00:27;1.80;99.90
4964;DHT22;2497;47.410;9.740;2023-03-12T02:03:00;1.80;99.90
4964;DHT22;2497;47.410;9.740;2023-03-12T02:05:34;1.70;99.90
4964;DHT22;2497;47.410;9.740;2023-03-12T02:08:05;1.70;99.90
4964;DHT22;2497;47.410;9.740;2023-03-12T02:10:32;1.70;99.90
4964;DHT22;2497;47.410;9.740;2023-03-12T02:12:59;1.60;99.90
4964;DHT22;2497;47.410;9.740;2023-03-12T02:15:27;1.60;99.90
4964;DHT22;2497;47.410;9.740;2023-03-12T02:17:54;1.60;99.90
4964;DHT22;2497;47.410;9.740;2023-03-12T02:20:26;1.60;99.90
4964;DHT22;2497;47.410;9.740;2023-03-12T02:23:02;1.60;99.90
4964;DHT22;2497;47.410;9.740;2023-03-12T02:25:37;1.70;99.90
4964;DHT22;2497;47.410;9.740;2023-03-12T02:28:07;1.60;99.90
4964;DHT22;2497;47.410;9.740;2023-03-12T02:30:35;1.60;99.90
4964;DHT22;2497;47.410;9.740;2023-03-12T02:33:06;1.60;99.90
4964;DHT22;2497;47.410;9.740;2023-03-12T02:35:33;1.60;99.90
4964;DHT22;2497;47.410;9.740;2023-03-12T02:38:01;1.60;99.90
4964;DHT22;2497;47.410;9.740;2023-03-12T02:40:35;1.60;99.90
4964;DHT22;2497;47.410;9.740;2023-03-12T02:43:05;1.50;99.90
4964;DHT22;2497;47.410;9.740;2023-03-12T02:45:33;1.60;99.90
4964;DHT22;2497;47.410;9.740;2023-03-12T02:48:01;1.60;99.90
4964;DHT22;2497;47.410;9.740;2023-03-12T02:50:28;1.60;99.90
4964;DHT22;2497;47.410;9.740;2023-03-12T02:53:01;1.60;99.90
4964;DHT22;2497;47.410;9.740;2023-03-12T02:55:28;1.50;99.90
4964;DHT22;2497;47.410;9.740;2023-03-12T02:57:56;1.50;99.90
4964;DHT22;2497;47.410;9.740;2023-03-12T03:00:24;1.50;99.90
4964;DHT22;2497;47.410;9.740;2023-03-12T03:02:51;1.60;99.90
4964;DHT22;2497;47.410;9.740;2023-03-12T03:05:18;1.60;99.90
4964;DHT22;2497;47.410;9.740;2023-03-12T03:07:46;1.50;99.90
4964;DHT22;2497;47.410;9.740;2023-03-12T03:10:13;1.50;99.90
4964;DHT22;2497;47.410;9.740;2023-03-12T03:12:42;1.50;99.90
4964;DHT22;2497;47.410;9.740;2023-03-12T03:15:11;1.40;99.90
4964;DHT22;2497;47.410;9.740;2023-03-12T03:17:38;1.40;99.90
4964;DHT22;2497;47.410;9.740;2023-03-12T03:20:06;1.50;99.90
4964;DHT22;2497;47.410;9.740;2023-03-12T03:22:36;1.50;99.90
4964;DHT22;2497;47.410;9.740;2023-03-12T03:25:04;1.40;99.90
4964;DHT22;2497;47.410;9.740;2023-03-12T03:27:32;1.40;99.90
4964;DHT22;2497;47.410;9.740;2023-03-12T03:29:59;1.40;99.90
4964;DHT22;2497;47.410;9.740;2023-03-12T03:32:28;1.40;99.90
4964;DHT22;2497;47.410;9.740;2023-03-12T03:34:55;1.40;99.90
4964;DHT22;2497;47.410;9.740;2023-03-12T03:37:22;1.50;99.90
4964;DHT22;2497;47.410;9.740;2023-03-12T03:39:49;1.50;99.90
4964;DHT22;2497;47.410;9.740;2023-03-12T03:42:16;1.50;99.90
4964;DHT22;2497;47.410;9.740;2023-03-12T03:44:44;1.40;99.90
4964;DHT22;2497;47.410;9.740;2023-03-12T03:47:11;1.40;99.90
4964;DHT22;2497;47.410;9.740;2023-03-12T03:49:40;1.40;99.90
4964;DHT22;2497;47.410;9.740;2023-03-12T03:52:07;1.40;99.90
4964;DHT22;2497;47.410;9.740;2023-03-12T03:54:34;1.40;99.90
4964;DHT22;2497;47.410;9.740;2023-03-12T03:57:01;1.40;99.90
4964;DHT22;2497;47.410;9.740;2023-03-12T03:59:28;1.40;99.90
4964;DHT22;2497;47.410;9.740;2023-03-12T04:02:00;1.40;99.90
4964;DHT22;2497;47.410;9.740;2023-03-12T04:04:27;1.40;99.90
4964;DHT22;2497;47.410;9.740;2023-03-12T04:06:57;1.40;99.90
4964;DHT22;2497;47.410;9.740;2023-03-12T04:09:24;1.40;99.90
4964;DHT22;2497;47.410;9.740;2023-03-12T04:11:52;1.40;99.90
4964;DHT22;2497;47.410;9.740;2023-03-12T04:14:19;1.40;99.90
4964;DHT22;2497;47.410;9.740;2023-03-12T04:16:46;1.40;99.90
4964;DHT22;2497;47.410;9.740;2023-03-12T04:19:13;1.60;99.90
4964;DHT22;2497;47.410;9.740;2023-03-12T04:21:40;1.70;99.90
4964;DHT22;2497;47.410;9.740;2023-03-12T04:24:13;1.60;99.90
4964;DHT22;2497;47.410;9.740;2023-03-12T04:26:40;1.60;99.90
4964;DHT22;2497;47.410;9.740;2023-03-12T04:29:08;1.60;99.90
4964;DHT22;2497;47.410;9.740;2023-03-12T04:31:35;1.70;99.90
4964;DHT22;2497;47.410;9.740;2023-03-12T04:34:02;1.60;99.90
4964;DHT22;2497;47.410;9.740;2023-03-12T04:36:29;1.60;99.90
4964;DHT22;2497;47.410;9.740;2023-03-12T04:38:56;1.60;99.90
4964;DHT22;2497;47.410;9.740;2023-03-12T04:41:25;1.60;99.90
4964;DHT22;2497;47.410;9.740;2023-03-12T04:43:52;1.60;99.90
4964;DHT22;2497;47.410;9.740;2023-03-12T04:46:19;1.50;99.90
4964;DHT22;2497;47.410;9.740;2023-03-12T04:48:46;1.60;99.90
4964;DHT22;2497;47.410;9.740;2023-03-12T04:51:13;1.60;99.90
4964;DHT22;2497;47.410;9.740;2023-03-12T04:53:40;1.60;99.90
4964;DHT22;2497;47.410;9.740;2023-03-12T04:56:07;1.60;99.90
4964;DHT22;2497;47.410;9.740;2023-03-12T04:58:36;1.70;99.90
4964;DHT22;2497;47.410;9.740;2023-03-12T05:01:04;1.80;99.90
4964;DHT22;2497;47.410;9.740;2023-03-12T05:03:31;1.70;99.90
4964;DHT22;2497;47.410;9.740;2023-03-12T05:05:58;1.70;99.90
4964;DHT22;2497;47.410;9.740;2023-03-12T05:08:25;1.70;99.90
4964;DHT22;2497;47.410;9.740;2023-03-12T05:10:52;1.80;99.90
4964;DHT22;2497;47.410;9.740;2023-03-12T05:13:21;1.80;99.90
4964;DHT22;2497;47.410;9.740;2023-03-12T05:15:50;1.80;99.90
4964;DHT22;2497;47.410;9.740;2023-03-12T05:18:17;1.90;99.90
4964;DHT22;2497;47.410;9.740;2023-03-12T05:20:46;1.80;99.90
4964;DHT22;2497;47.410;9.740;2023-03-12T05:23:13;1.90;99.90
4964;DHT22;2497;47.410;9.740;2023-03-12T05:25:41;1.90;99.90
4964;DHT22;2497;47.410;9.740;2023-03-12T05:28:08;1.90;99.90
4964;DHT22;2497;47.410;9.740;2023-03-12T05:30:35;1.90;99.90
4964;DHT22;2497;47.410;9.740;2023-03-12T05:33:03;1.90;99.90
4964;DHT22;2497;47.410;9.740;2023-03-12T05:35:30;2.00;99.90
4964;DHT22;2497;47.410;9.740;2023-03-12T05:37:57;1.90;99.90
4964;DHT22;2497;47.410;9.740;2023-03-12T05:40:24;1.90;99.90
4964;DHT22;2497;47.410;9.740;2023-03-12T05:42:52;1.90;99.90
4964;DHT22;2497;47.410;9.740;2023-03-12T05:45:19;1.90;99.90
4964;DHT22;2497;47.410;9.740;2023-03-12T05:47:46;2.00;99.90
4964;DHT22;2497;47.410;9.740;2023-03-12T05:50:15;2.00;99.90
4964;DHT22;2497;47.410;9.740;2023-03-12T05:52:42;2.00;99.90
4964;DHT22;2497;47.410;9.740;2023-03-12T05:55:09;2.00;99.90
4964;DHT22;2497;47.410;9.740;2023-03-12T05:57:36;2.00;99.90
4964;DHT22;2497;47.410;9.740;2023-03-12T06:00:04;2.10;99.90
4964;DHT22;2497;47.410;9.740;2023-03-12T06:02:33;2.10;99.90
4964;DHT22;2497;47.410;9.740;2023-03-12T06:05:00;2.10;99.90
4964;DHT22;2497;47.410;9.740;2023-03-12T06:07:28;2.20;99.90
4964;DHT22;2497;47.410;9.740;2023-03-12T06:09:56;2.20;99.90
4964;DHT22;2497;47.410;9.740;2023-03-12T06:12:24;2.30;99.90
4964;DHT22;2497;47.410;9.740;2023-03-12T06:14:51;2.40;99.90
4964;DHT22;2497;47.410;9.740;2023-03-12T06:17:18;2.40;99.90
4964;DHT22;2497;47.410;9.740;2023-03-12T06:19:46;2.40;99.90
4964;DHT22;2497;47.410;9.740;2023-03-12T06:22:16;2.40;99.90
4964;DHT22;2497;47.410;9.740;2023-03-12T06:24:44;2.50;99.90
4964;DHT22;2497;47.410;9.740;2023-03-12T06:27:12;2.50;99.90
4964;DHT22;2497;47.410;9.740;2023-03-12T06:29:39;2.50;99.90
4964;DHT22;2497;47.410;9.740;2023-03-12T06:32:06;2.50;99.90
4964;DHT22;2497;47.410;9.740;2023-03-12T06:34:34;2.40;99.90
4964;DHT22;2497;47.410;9.740;2023-03-12T06:37:01;2.50;99.90
4964;DHT22;2497;47.410;9.740;2023-03-12T06:39:28;2.50;99.90
4964;DHT22;2497;47.410;9.740;2023-03-12T06:41:57;2.50;99.90
4964;DHT22;2497;47.410;9.740;2023-03-12T06:44:24;2.50;99.90
4964;DHT22;2497;47.410;9.740;2023-03-12T06:46:51;2.60;99.90
4964;DHT22;2497;47.410;9.740;2023-03-12T06:49:18;2.70;99.90
4964;DHT22;2497;47.410;9.740;2023-03-12T06:51:45;2.70;99.90
4964;DHT22;2497;47.410;9.740;2023-03-12T06:54:12;2.80;99.90
4964;DHT22;2497;47.410;9.740;2023-03-12T06:56:39;2.80;99.90
4964;DHT22;2497;47.410;9.740;2023-03-12T06:59:08;2.80;99.90
4964;DHT22;2497;47.410;9.740;2023-03-12T07:01:35;2.80;99.90
4964;DHT22;2497;47.410;9.740;2023-03-12T07:04:02;2.80;99.90
4964;DHT22;2497;47.410;9.740;2023-03-12T07:06:29;2.90;99.90
4964;DHT22;2497;47.410;9.740;2023-03-12T07:08:56;2.90;99.90
4964;DHT22;2497;47.410;9.740;2023-03-12T07:11:23;3.00;99.90
4964;DHT22;2497;47.410;9.740;2023-03-12T07:13:50;3.00;99.90
4964;DHT22;2497;47.410;9.740;2023-03-12T07:16:19;3.10;99.90
4964;DHT22;2497;47.410;9.740;2023-03-12T07:18:46;3.00;99.90
4964;DHT22;2497;47.410;9.740;2023-03-12T07:21:13;3.00;99.90
4964;DHT22;2497;47.410;9.740;2023-03-12T07:23:42;3.20;99.90
4964;DHT22;2497;47.410;9.740;2023-03-12T07:26:09;3.20;99.90
4964;DHT22;2497;47.410;9.740;2023-03-12T07:28:36;3.30;99.90
4964;DHT22;2497;47.410;9.740;2023-03-12T07:31:04;3.30;99.90
4964;DHT22;2497;47.410;9.740;2023-03-12T07:33:33;3.60;99.90
4964;DHT22;2497;47.410;9.740;2023-03-12T07:36:00;3.70;99.90
4964;DHT22;2497;47.410;9.740;2023-03-12T07:38:28;3.70;99.90
4964;DHT22;2497;47.410;9.740;2023-03-12T07:40:56;3.80;99.90
4964;DHT22;2497;47.410;9.740;2023-03-12T07:43:23;3.80;99.90
4964;DHT22;2497;47.410;9.740;2023-03-12T07:45:51;3.80;99.90
4964;DHT22;2497;47.410;9.740;2023-03-12T07:48:18;3.70;99.90
4964;DHT22;2497;47.410;9.740;2023-03-12T07:50:46;3.70;99.90
4964;DHT22;2497;47.410;9.740;2023-03-12T07:53:14;3.70;99.90
4964;DHT22;2497;47.410;9.740;2023-03-12T07:55:43;3.80;99.90
4964;DHT22;2497;47.410;9.740;2023-03-12T07:58:10;3.90;99.90
4964;DHT22;2497;47.410;9.740;2023-03-12T08:00:38;4.10;99.90
4964;DHT22;2497;47.410;9.740;2023-03-12T08:03:05;4.20;99.90
4964;DHT22;2497;47.410;9.740;2023-03-12T08:05:32;4.40;99.90
4964;DHT22;2497;47.410;9.740;2023-03-12T08:08:01;4.40;99.90
4964;DHT22;2497;47.410;9.740;2023-03-12T08:10:28;4.40;99.90
4964;DHT22;2497;47.410;9.740;2023-03-12T08:12:55;4.50;99.90
4964;DHT22;2497;47.410;9.740;2023-03-12T08:15:22;4.50;99.90
4964;DHT22;2497;47.410;9.740;2023-03-12T08:17:50;4.40;99.90
4964;DHT22;2497;47.410;9.740;2023-03-12T08:20:17;4.40;99.90
4964;DHT22;2497;47.410;9.740;2023-03-12T08:22:44;4.40;99.90
4964;DHT22;2497;47.410;9.740;2023-03-12T08:25:13;4.40;99.90
4964;DHT22;2497;47.410;9.740;2023-03-12T08:27:40;4.50;99.90
4964;DHT22;2497;47.410;9.740;2023-03-12T08:30:09;4.60;99.90
4964;DHT22;2497;47.410;9.740;2023-03-12T08:32:36;4.70;99.90
4964;DHT22;2497;47.410;9.740;2023-03-12T08:35:03;4.80;99.90
4964;DHT22;2497;47.410;9.740;2023-03-12T08:37:31;5.00;99.90
4964;DHT22;2497;47.410;9.740;2023-03-12T08:39:58;5.00;99.90
4964;DHT22;2497;47.410;9.740;2023-03-12T08:42:27;5.10;99.90
4964;DHT22;2497;47.410;9.740;2023-03-12T08:44:54;5.30;99.90
4964;DHT22;2497;47.410;9.740;2023-03-12T08:47:21;5.30;99.90
4964;DHT22;2497;47.410;9.740;2023-03-12T08:49:48;5.40;99.90
4964;DHT22;2497;47.410;9.740;2023-03-12T08:52:15;5.30;99.90
4964;DHT22;2497;47.410;9.740;2023-03-12T08:54:42;5.30;99.90
4964;DHT22;2497;47.410;9.740;2023-03-12T08:57:09;5.40;99.90
4964;DHT22;2497;47.410;9.740;2023-03-12T08:59:38;5.60;99.90
4964;DHT22;2497;47.410;9.740;2023-03-12T09:02:06;5.30;99.90
4964;DHT22;2497;47.410;9.740;2023-03-12T09:04:33;5.40;99.90
4964;DHT22;2497;47.410;9.740;2023-03-12T09:07:00;5.50;99.90
4964;DHT22;2497;47.410;9.740;2023-03-12T09:09:27;5.70;99.90
4964;DHT22;2497;47.410;9.740;2023-03-12T09:11:55;5.70;99.90
4964;DHT22;2497;47.410;9.740;2023-03-12T09:14:22;5.70;99.90
4964;DHT22;2497;47.410;9.740;2023-03-12T09:16:51;5.80;99.90
4964;DHT22;2497;47.410;9.740;2023-03-12T09:19:18;5.70;99.90
4964;DHT22;2497;47.410;9.740;2023-03-12T09:21:45;5.80;99.90
4964;DHT22;2497;47.410;9.740;2023-03-12T09:24:12;5.80;99.90
4964;DHT22;2497;47.410;9.740;2023-03-12T09:26:39;5.80;99.90
4964;DHT22;2497;47.410;9.740;2023-03-12T09:29:06;5.90;99.90
4964;DHT22;2497;47.410;9.740;2023-03-12T09:31:34;6.00;99.90
4964;DHT22;2497;47.410;9.740;2023-03-12T09:34:03;5.90;99.90
4964;DHT22;2497;47.410;9.740;2023-03-12T09:36:30;6.00;99.90
4964;DHT22;2497;47.410;9.740;2023-03-12T09:38:59;6.00;99.90
4964;DHT22;2497;47.410;9.740;2023-03-12T09:41:28;6.20;99.90
4964;DHT22;2497;47.410;9.740;2023-03-12T09:43:59;6.30;99.90
4964;DHT22;2497;47.410;9.740;2023-03-12T09:46:32;6.30;99.90
4964;DHT22;2497;47.410;9.740;2023-03-12T09:49:05;6.40;99.90
4964;DHT22;2497;47.410;9.740;2023-03-12T09:51:39;6.20;99.90
4964;DHT22;2497;47.410;9.740;2023-03-12T09:54:14;6.20;99.90
4964;DHT22;2497;47.410;9.740;2023-03-12T09:56:44;6.20;99.90
4964;DHT22;2497;47.410;9.740;2023-03-12T09:59:12;6.10;99.90
4964;DHT22;2497;47.410;9.740;2023-03-12T10:01:43;6.10;99.90
4964;DHT22;2497;47.410;9.740;2023-03-12T10:07:07;6.40;99.90
4964;DHT22;2497;47.410;9.740;2023-03-12T10:10:02;6.40;99.90
4964;DHT22;2497;47.410;9.740;2023-03-12T10:12:47;6.60;99.90
4964;DHT22;2497;47.410;9.740;2023-03-12T10:15:30;6.50;99.90
4964;DHT22;2497;47.410;9.740;2023-03-12T10:18:08;6.50;99.90
4964;DHT22;2497;47.410;9.740;2023-03-12T10:20:49;6.40;99.90
4964;DHT22;2497;47.410;9.740;2023-03-12T10:23:24;6.60;99.90
4964;DHT22;2497;47.410;9.740;2023-03-12T10:25:58;6.50;99.90
4964;DHT22;2497;47.410;9.740;2023-03-12T10:28:32;6.50;99.90
4964;DHT22;2497;47.410;9.740;2023-03-12T10:31:04;6.60;99.90
4964;DHT22;2497;47.410;9.740;2023-03-12T10:33:40;6.80;99.90
4964;DHT22;2497;47.410;9.740;2023-03-12T10:36:16;6.70;99.90
4964;DHT22;2497;47.410;9.740;2023-03-12T10:38:44;6.70;99.90
4964;DHT22;2497;47.410;9.740;2023-03-12T10:41:15;6.70;99.90
4964;DHT22;2497;47.410;9.740;2023-03-12T10:43:43;6.70;99.90
4964;DHT22;2497;47.410;9.740;2023-03-12T10:49:29;6.60;99.90
4964;DHT22;2497;47.410;9.740;2023-03-12T10:52:00;6.70;99.90
4964;DHT22;2497;47.410;9.740;2023-03-12T10:54:30;6.60;99.90
4964;DHT22;2497;47.410;9.740;2023-03-12T10:56:57;6.60;99.90
4964;DHT22;2497;47.410;9.740;2023-03-12T10:59:30;6.60;99.90
4964;DHT22;2497;47.410;9.740;2023-03-12T11:01:58;6.60;99.90
4964;DHT22;2497;47.410;9.740;2023-03-12T11:04:27;6.60;99.90
4964;DHT22;2497;47.410;9.740;2023-03-12T11:07:17;6.70;99.90
4964;DHT22;2497;47.410;9.740;2023-03-12T11:09:45;6.60;99.90
4964;DHT22;2497;47.410;9.740;2023-03-12T11:12:26;6.80;99.90
4964;DHT22;2497;47.410;9.740;2023-03-12T11:14:53;6.90;99.90
4964;DHT22;2497;47.410;9.740;2023-03-12T11:17:22;7.00;99.90
4964;DHT22;2497;47.410;9.740;2023-03-12T11:19:50;7.10;99.90
4964;DHT22;2497;47.410;9.740;2023-03-12T11:22:29;7.10;99.90
4964;DHT22;2497;47.410;9.740;2023-03-12T11:24:58;7.00;99.90
4964;DHT22;2497;47.410;9.740;2023-03-12T11:27:39;7.10;99.90
4964;DHT22;2497;47.410;9.740;2023-03-12T11:30:11;7.20;99.90
4964;DHT22;2497;47.410;9.740;2023-03-12T11:32:42;7.10;99.90
4964;DHT22;2497;47.410;9.740;2023-03-12T11:35:13;7.00;99.90
4964;DHT22;2497;47.410;9.740;2023-03-12T11:37:53;6.90;99.90
4964;DHT22;2497;47.410;9.740;2023-03-12T11:40:48;7.10;99.90
4964;DHT22;2497;47.410;9.740;2023-03-12T11:43:28;7.20;99.90
4964;DHT22;2497;47.410;9.740;2023-03-12T11:46:10;7.30;99.90
4964;DHT22;2497;47.410;9.740;2023-03-12T11:48:45;7.30;99.90
4964;DHT22;2497;47.410;9.740;2023-03-12T11:51:27;7.50;99.90
4964;DHT22;2497;47.410;9.740;2023-03-12T11:54:15;7.50;99.90
4964;DHT22;2497;47.410;9.740;2023-03-12T11:56:47;7.60;99.90
4964;DHT22;2497;47.410;9.740;2023-03-12T11:59:34;7.50;99.90
4964;DHT22;2497;47.410;9.740;2023-03-12T12:02:13;7.40;99.90
4964;DHT22;2497;47.410;9.740;2023-03-12T12:04:58;7.40;99.90
4964;DHT22;2497;47.410;9.740;2023-03-12T12:07:40;7.40;99.90
4964;DHT22;2497;47.410;9.740;2023-03-12T12:10:21;7.50;99.90
4964;DHT22;2497;47.410;9.740;2023-03-12T12:12:55;7.80;99.90
4964;DHT22;2497;47.410;9.740;2023-03-12T12:15:34;8.00;99.90
4964;DHT22;2497;47.410;9.740;2023-03-12T12:18:14;7.80;99.90
4964;DHT22;2497;47.410;9.740;2023-03-12T12:20:49;8.00;99.90
4964;DHT22;2497;47.410;9.740;2023-03-12T12:23:23;8.00;99.90
4964;DHT22;2497;47.410;9.740;2023-03-12T12:26:09;7.90;99.90
4964;DHT22;2497;47.410;9.740;2023-03-12T12:29:04;7.90;99.90
4964;DHT22;2497;47.410;9.740;2023-03-12T12:31:40;7.80;99.90
4964;DHT22;2497;47.410;9.740;2023-03-12T12:34:29;7.60;99.90
4964;DHT22;2497;47.410;9.740;2023-03-12T12:37:16;7.60;99.90
4964;DHT22;2497;47.410;9.740;2023-03-12T12:39:48;7.40;99.90
4964;DHT22;2497;47.410;9.740;2023-03-12T12:42:23;7.30;99.90
4964;DHT22;2497;47.410;9.740;2023-03-12T12:44:53;7.30;99.90
4964;DHT22;2497;47.410;9.740;2023-03-12T12:47:29;7.30;99.90
4964;DHT22;2497;47.410;9.740;2023-03-12T12:49:58;7.20;99.90
4964;DHT22;2497;47.410;9.740;2023-03-12T12:52:26;7.30;99.90
4964;DHT22;2497;47.410;9.740;2023-03-12T12:54:57;7.40;99.90
4964;DHT22;2497;47.410;9.740;2023-03-12T12:57:32;7.70;99.90
4964;DHT22;2497;47.410;9.740;2023-03-12T13:00:22;7.80;99.90
4964;DHT22;2497;47.410;9.740;2023-03-12T13:02:52;8.00;99.90
4964;DHT22;2497;47.410;9.740;2023-03-12T13:05:25;8.30;99.90
4964;DHT22;2497;47.410;9.740;2023-03-12T13:07:53;8.40;99.90
4964;DHT22;2497;47.410;9.740;2023-03-12T13:10:41;8.50;99.90
4964;DHT22;2497;47.410;9.740;2023-03-12T13:13:18;8.60;99.90
4964;DHT22;2497;47.410;9.740;2023-03-12T13:15:47;8.60;99.90
4964;DHT22;2497;47.410;9.740;2023-03-12T13:18:23;8.40;99.90
4964;DHT22;2497;47.410;9.740;2023-03-12T13:21:11;8.30;99.90
4964;DHT22;2497;47.410;9.740;2023-03-12T13:23:48;8.20;99.90
4964;DHT22;2497;47.410;9.740;2023-03-12T13:26:22;8.30;99.90
4964;DHT22;2497;47.410;9.740;2023-03-12T13:29:16;8.30;99.90
4964;DHT22;2497;47.410;9.740;2023-03-12T13:31:45;8.40;99.90
4964;DHT22;2497;47.410;9.740;2023-03-12T13:40:53;8.60;99.90
4964;DHT22;2497;47.410;9.740;2023-03-12T13:43:54;8.70;99.90
4964;DHT22;2497;47.410;9.740;2023-03-12T13:46:41;8.70;99.90
4964;DHT22;2497;47.410;9.740;2023-03-12T13:49:13;8.70;99.90
4964;DHT22;2497;47.410;9.740;2023-03-12T13:51:51;8.70;99.90
4964;DHT22;2497;47.410;9.740;2023-03-12T13:54:24;8.60;99.90
4964;DHT22;2497;47.410;9.740;2023-03-12T13:56:56;8.70;99.90
4964;DHT22;2497;47.410;9.740;2023-03-12T13:59:26;8.40;99.90
4964;DHT22;2497;47.410;9.740;2023-03-12T14:02:17;8.40;99.90
4964;DHT22;2497;47.410;9.740;2023-03-12T14:04:47;8.50;99.90
4964;DHT22;2497;47.410;9.740;2023-03-12T14:07:34;8.80;99.90
4964;DHT22;2497;47.410;9.740;2023-03-12T14:10:11;9.10;99.90
4964;DHT22;2497;47.410;9.740;2023-03-12T14:12:47;9.10;99.90
4964;DHT22;2497;47.410;9.740;2023-03-12T14:15:23;9.40;99.90
4964;DHT22;2497;47.410;9.740;2023-03-12T14:17:57;9.50;99.90
4964;DHT22;2497;47.410;9.740;2023-03-12T14:20:26;9.40;99.90
4964;DHT22;2497;47.410;9.740;2023-03-12T14:22:58;9.60;99.90
4964;DHT22;2497;47.410;9.740;2023-03-12T14:25:32;9.80;99.90
4964;DHT22;2497;47.410;9.740;2023-03-12T14:28:00;10.10;99.90
4964;DHT22;2497;47.410;9.740;2023-03-12T14:30:36;10.10;99.90
4964;DHT22;2497;47.410;9.740;2023-03-12T14:33:15;10.00;99.90
4964;DHT22;2497;47.410;9.740;2023-03-12T14:35:52;9.90;99.90
4964;DHT22;2497;47.410;9.740;2023-03-12T14:38:25;9.90;99.90
4964;DHT22;2497;47.410;9.740;2023-03-12T14:40:59;9.60;99.90
4964;DHT22;2497;47.410;9.740;2023-03-12T14:43:29;9.60;99.90
4964;DHT22;2497;47.410;9.740;2023-03-12T14:45:58;9.50;99.90
4964;DHT22;2497;47.410;9.740;2023-03-12T14:48:30;9.50;99.90
4964;DHT22;2497;47.410;9.740;2023-03-12T14:50:58;9.70;99.90
4964;DHT22;2497;47.410;9.740;2023-03-12T14:53:28;9.70;99.90
4964;DHT22;2497;47.410;9.740;2023-03-12T14:56:00;9.80;99.90
4964;DHT22;2497;47.410;9.740;2023-03-12T14:58:29;9.90;99.90
4964;DHT22;2497;47.410;9.740;2023-03-12T15:00:59;9.70;99.90
4964;DHT22;2497;47.410;9.740;2023-03-12T15:03:29;9.40;99.90
4964;DHT22;2497;47.410;9.740;2023-03-12T15:05:59;9.40;99.90
4964;DHT22;2497;47.410;9.740;2023-03-12T15:08:26;9.30;99.90
4964;DHT22;2497;47.410;9.740;2023-03-12T15:10:55;9.30;99.90
4964;DHT22;2497;47.410;9.740;2023-03-12T15:13:25;9.20;99.90
4964;DHT22;2497;47.410;9.740;2023-03-12T15:15:54;9.20;99.90
4964;DHT22;2497;47.410;9.740;2023-03-12T15:18:25;9.20;99.90
4964;DHT22;2497;47.410;9.740;2023-03-12T15:20:56;9.20;99.90
4964;DHT22;2497;47.410;9.740;2023-03-12T15:23:26;9.70;99.90
4964;DHT22;2497;47.410;9.740;2023-03-12T15:26:12;10.10;99.90
4964;DHT22;2497;47.410;9.740;2023-03-12T15:28:41;10.50;99.90
4964;DHT22;2497;47.410;9.740;2023-03-12T15:31:15;10.50;99.90
4964;DHT22;2497;47.410;9.740;2023-03-12T15:33:43;11.10;99.90
4964;DHT22;2497;47.410;9.740;2023-03-12T15:36:29;11.80;99.90
4964;DHT22;2497;47.410;9.740;2023-03-12T15:39:00;12.20;99.90
4964;DHT22;2497;47.410;9.740;2023-03-12T15:41:39;11.80;99.90
4964;DHT22;2497;47.410;9.740;2023-03-12T15:44:13;11.40;99.90
4964;DHT22;2497;47.410;9.740;2023-03-12T15:46:44;11.00;99.90
4964;DHT22;2497;47.410;9.740;2023-03-12T15:49:20;10.70;99.90
4964;DHT22;2497;47.410;9.740;2023-03-12T15:52:01;10.70;99.90
4964;DHT22;2497;47.410;9.740;2023-03-12T15:54:32;10.60;99.90
4964;DHT22;2497;47.410;9.740;2023-03-12T15:57:20;10.50;99.90
4964;DHT22;2497;47.410;9.740;2023-03-12T16:00:17;10.60;99.90
4964;DHT22;2497;47.410;9.740;2023-03-12T16:02:53;10.40;99.90
4964;DHT22;2497;47.410;9.740;2023-03-12T16:05:25;10.10;99.90
4964;DHT22;2497;47.410;9.740;2023-03-12T16:08:13;10.50;99.90
4964;DHT22;2497;47.410;9.740;2023-03-12T16:10:42;11.70;99.90
4964;DHT22;2497;47.410;9.740;2023-03-12T16:13:12;11.80;99.90
4964;DHT22;2497;47.410;9.740;2023-03-12T16:15:41;11.50;99.90
4964;DHT22;2497;47.410;9.740;2023-03-12T16:18:12;11.30;99.90
4964;DHT22;2497;47.410;9.740;2023-03-12T16:20:40;11.30;99.90
4964;DHT22;2497;47.410;9.740;2023-03-12T16:23:10;11.60;99.90
4964;DHT22;2497;47.410;9.740;2023-03-12T16:25:41;11.90;99.90
4964;DHT22;2497;47.410;9.740;2023-03-12T16:28:13;12.00;99.90
4964;DHT22;2497;47.410;9.740;2023-03-12T16:30:41;11.50;99.90
4964;DHT22;2497;47.410;9.740;2023-03-12T16:33:13;11.00;99.90
4964;DHT22;2497;47.410;9.740;2023-03-12T16:35:40;10.60;99.90
4964;DHT22;2497;47.410;9.740;2023-03-12T16:38:09;10.10;99.90
4964;DHT22;2497;47.410;9.740;2023-03-12T16:40:38;9.70;99.90
4964;DHT22;2497;47.410;9.740;2023-03-12T16:43:13;9.50;99.90
4964;DHT22;2497;47.410;9.740;2023-03-12T16:45:43;9.40;99.90
4964;DHT22;2497;47.410;9.740;2023-03-12T16:48:14;9.20;99.90
4964;DHT22;2497;47.410;9.740;2023-03-12T16:50:46;9.00;99.90
4964;DHT22;2497;47.410;9.740;2023-03-12T16:53:16;9.00;99.90
4964;DHT22;2497;47.410;9.740;2023-03-12T16:55:48;9.00;99.90